createdAt,value
2018-12-13T00:03:25.852Z,8.67
2018-12-13T00:08:32.040Z,9.50
2018-12-13T00:13:35.862Z,6.73
2018-12-13T00:18:39.558Z,8.50
2018-12-13T00:23:43.250Z,10.87
2018-12-13T00:28:47.264Z,8.80
2018-12-13T00:33:51.355Z,8.37
2018-12-13T00:38:55.533Z,9.70
2018-12-13T00:43:59.631Z,10.93
2018-12-13T00:49:03.752Z,11.13
2018-12-13T00:54:07.868Z,11.20
2018-12-13T00:59:11.963Z,12.40
2018-12-13T01:04:16.175Z,12.07
2018-12-13T01:09:20.387Z,13.30
2018-12-13T01:14:24.511Z,11.43
2018-12-13T01:19:28.687Z,10.87
2018-12-13T01:24:32.777Z,11.43
2018-12-13T01:29:36.875Z,9.53
2018-12-13T01:34:41.043Z,11.70
2018-12-13T01:39:45.152Z,12.30
2018-12-13T01:44:49.270Z,10.47
2018-12-13T01:49:53.378Z,8.37
2018-12-13T01:54:57.767Z,13.60
2018-12-13T02:00:01.840Z,10.13
2018-12-13T02:05:08.083Z,10.70
2018-12-13T02:10:11.886Z,10.70
2018-12-13T02:15:16.117Z,9.80
2018-12-13T02:20:20.331Z,9.57
2018-12-13T02:25:24.568Z,13.90
2018-12-13T02:30:29.103Z,11.17
2018-12-13T02:35:32.898Z,11.17
2018-12-13T02:40:36.924Z,11.57
2018-12-13T02:45:41.077Z,8.43
2018-12-13T02:50:45.185Z,9.33
2018-12-13T02:55:49.316Z,8.80
2018-12-13T03:00:53.560Z,10.77
2018-12-13T03:05:57.730Z,10.83
2018-12-13T03:11:01.526Z,10.27
2018-12-13T03:16:12.045Z,14.00
2018-12-13T03:21:17.823Z,9.97
2018-12-13T03:26:21.843Z,13.47
2018-12-13T03:31:25.980Z,10.30
2018-12-13T03:36:30.088Z,13.70
2018-12-13T03:41:34.315Z,13.30
2018-12-13T03:46:38.419Z,10.73
2018-12-13T03:51:42.550Z,11.50
2018-12-13T03:56:46.655Z,10.37
2018-12-13T04:01:50.846Z,12.80
2018-12-13T04:06:54.670Z,13.40
2018-12-13T04:11:58.802Z,13.13
2018-12-13T04:17:03.302Z,14.50
2018-12-13T04:22:07.077Z,14.47
2018-12-13T04:27:11.107Z,18.47
2018-12-13T04:32:15.214Z,17.47
2018-12-13T04:37:20.362Z,19.13
2018-12-13T04:42:24.154Z,23.90
2018-12-13T04:47:27.872Z,21.90
2018-12-13T04:52:31.886Z,22.77
2018-12-13T04:57:35.995Z,24.37
2018-12-13T05:02:39.793Z,22.47
2018-12-13T05:07:44.372Z,20.77
2018-12-13T05:12:48.097Z,20.63
2018-12-13T05:17:52.252Z,21.67
2018-12-13T05:22:56.322Z,25.57
2018-12-13T05:28:00.124Z,21.93
2018-12-13T05:33:04.377Z,22.60
2018-12-13T05:38:08.474Z,23.37
2018-12-13T05:43:12.613Z,19.33
2018-12-13T05:48:16.732Z,20.70
2018-12-13T05:53:20.533Z,17.30
2018-12-13T05:58:24.630Z,18.63
2018-12-13T06:03:28.750Z,18.20
2018-12-13T06:08:32.858Z,20.27
2018-12-13T06:13:37.009Z,21.77
2018-12-13T06:18:41.117Z,16.47
2018-12-13T06:23:44.901Z,15.67
2018-12-13T06:28:48.914Z,16.37
2018-12-13T06:33:53.011Z,17.00
2018-12-13T06:38:57.134Z,18.97
2018-12-13T06:44:00.923Z,15.63
2018-12-13T06:49:05.043Z,15.73
2018-12-13T06:54:09.143Z,17.30
2018-12-13T06:59:13.268Z,16.17
2018-12-13T07:04:18.482Z,15.63
2018-12-13T07:09:23.264Z,12.33
2018-12-13T07:14:27.114Z,13.90
2018-12-13T07:19:30.812Z,13.37
2018-12-13T07:24:34.712Z,16.77
2018-12-13T07:29:38.792Z,12.07
2018-12-13T07:34:42.921Z,13.33
2018-12-13T07:39:47.155Z,14.17
2018-12-13T07:44:51.930Z,14.50
2018-12-13T07:49:55.813Z,15.87
2018-12-13T07:55:00.120Z,18.27
2018-12-13T08:00:04.211Z,13.60
2018-12-13T08:05:08.594Z,15.90
2018-12-13T08:10:13.169Z,17.37
2018-12-13T08:15:17.242Z,24.70
2018-12-13T08:20:21.492Z,21.40
2018-12-13T08:25:26.323Z,20.40
2018-12-13T08:30:30.566Z,20.57
2018-12-13T08:35:34.291Z,19.17
2018-12-13T08:40:38.350Z,22.57
2018-12-13T08:45:42.772Z,26.23
2018-12-13T08:50:47.637Z,24.10
2018-12-13T08:55:52.575Z,20.33
2018-12-13T09:00:57.759Z,23.73
2018-12-13T09:06:01.666Z,22.47
2018-12-13T09:11:06.626Z,20.87
2018-12-13T09:16:10.755Z,25.23
2018-12-13T09:21:14.602Z,22.77
2018-12-13T09:26:18.621Z,19.17
2018-12-13T09:31:23.446Z,20.93
2018-12-13T09:36:27.172Z,20.13
2018-12-13T09:41:30.866Z,17.00
2018-12-13T09:46:35.553Z,17.70
2018-12-13T09:51:39.581Z,22.87
2018-12-13T09:56:43.377Z,19.77
2018-12-13T10:01:47.366Z,18.10
2018-12-13T10:06:51.153Z,17.97
2018-12-13T10:11:54.981Z,16.27
2018-12-13T10:16:58.717Z,16.07
2018-12-13T10:22:02.733Z,18.93
2018-12-13T10:27:06.913Z,16.90
2018-12-13T10:32:10.705Z,15.57
2018-12-13T10:37:14.703Z,17.47
2018-12-13T10:42:18.484Z,19.33
2018-12-13T10:47:22.534Z,17.03
2018-12-13T10:52:26.770Z,16.53
2018-12-13T10:57:30.532Z,17.07
2018-12-13T11:02:41.921Z,15.97
2018-12-13T11:07:45.592Z,17.53
2018-12-13T11:12:49.730Z,15.07
2018-12-13T11:17:53.528Z,15.33
2018-12-13T11:22:58.131Z,18.13
2018-12-13T11:28:16.596Z,16.47
2018-12-13T11:33:20.285Z,16.47
2018-12-13T11:38:24.109Z,13.83
2018-12-13T11:43:29.222Z,20.07
2018-12-13T11:48:33.677Z,16.63
2018-12-13T11:53:37.661Z,15.30
2018-12-13T11:58:41.890Z,18.53
2018-12-13T12:03:45.585Z,20.80
2018-12-13T12:08:50.388Z,19.03
2018-12-13T12:13:54.100Z,19.27
2018-12-13T12:18:57.813Z,19.20
2018-12-13T12:24:02.465Z,19.33
2018-12-13T12:29:07.320Z,17.90
2018-12-13T12:34:11.118Z,19.00
2018-12-13T12:39:18.532Z,20.33
2018-12-13T12:44:20.601Z,21.07
2018-12-13T12:49:25.338Z,21.40
2018-12-13T12:54:29.266Z,18.47
2018-12-13T12:59:32.992Z,20.57
2018-12-13T13:04:36.700Z,23.13
2018-12-13T13:09:40.397Z,26.40
2018-12-13T13:14:44.265Z,25.00
2018-12-13T13:19:47.989Z,21.03
2018-12-13T13:24:52.742Z,24.07
2018-12-13T13:29:56.425Z,23.73
2018-12-13T13:35:00.708Z,23.00
2018-12-13T13:40:04.636Z,17.73
2018-12-13T13:45:08.572Z,20.60
2018-12-13T13:50:12.873Z,21.57
2018-12-13T13:55:16.640Z,22.10
2018-12-13T14:00:20.371Z,23.87
2018-12-13T14:05:24.383Z,23.23
2018-12-13T14:10:28.320Z,24.93
2018-12-13T14:15:33.144Z,22.13
2018-12-13T14:20:36.833Z,24.20
2018-12-13T14:25:40.638Z,24.77
2018-12-13T14:30:44.349Z,26.87
2018-12-13T14:35:48.402Z,25.80
2018-12-13T14:40:52.361Z,24.53
2018-12-13T14:45:58.173Z,25.57
2018-12-13T14:51:01.893Z,24.60
2018-12-13T14:56:06.593Z,26.03
2018-12-13T15:01:10.506Z,24.57
2018-12-13T15:06:14.217Z,27.50
2018-12-13T15:11:18.245Z,26.80
2018-12-13T15:16:24.037Z,28.97
2018-12-13T15:21:28.058Z,26.70
2018-12-13T15:26:31.845Z,29.20
2018-12-13T15:31:35.540Z,29.47
2018-12-13T15:36:39.240Z,29.90
2018-12-13T15:41:42.938Z,32.93
2018-12-13T15:46:47.373Z,26.27
2018-12-13T15:51:51.565Z,26.70
2018-12-13T15:56:55.447Z,27.17
2018-12-13T16:01:59.242Z,31.47
2018-12-13T16:07:04.363Z,28.90
2018-12-13T16:12:08.176Z,23.80
2018-12-13T16:17:11.884Z,27.60
2018-12-13T16:22:15.593Z,31.67
2018-12-13T16:27:19.441Z,29.37
2018-12-13T16:32:23.185Z,33.83
2018-12-13T16:37:26.881Z,32.17
2018-12-13T16:42:30.584Z,31.10
2018-12-13T16:47:34.399Z,29.73
2018-12-13T16:52:38.249Z,26.93
2018-12-13T16:57:42.333Z,29.73
2018-12-13T17:02:47.498Z,31.77
2018-12-13T17:07:51.382Z,31.57
2018-12-13T17:12:56.594Z,29.10
2018-12-13T17:18:00.392Z,33.77
2018-12-13T17:23:04.098Z,31.20
2018-12-13T17:28:08.002Z,24.50
2018-12-13T17:33:11.913Z,25.23
2018-12-13T17:38:15.900Z,30.00
2018-12-13T17:43:20.304Z,27.30
2018-12-13T17:48:25.489Z,30.07
2018-12-13T17:53:29.481Z,33.37
2018-12-13T17:58:33.432Z,36.23
2018-12-13T18:03:37.257Z,31.50
2018-12-13T18:08:41.433Z,28.40
2018-12-13T18:13:45.628Z,29.70
2018-12-13T18:18:49.935Z,27.40
2018-12-13T18:23:54.159Z,32.87
2018-12-13T18:28:58.851Z,31.23
2018-12-13T18:34:03.312Z,28.63
2018-12-13T18:39:08.197Z,26.33
2018-12-13T18:44:12.260Z,31.63
2018-12-13T18:49:16.975Z,30.30
2018-12-13T18:54:20.724Z,27.90
2018-12-13T18:59:25.194Z,31.37
2018-12-13T19:04:29.885Z,31.23
2018-12-13T19:09:34.081Z,26.70
2018-12-13T19:14:38.000Z,25.03
2018-12-13T19:19:42.007Z,27.17
2018-12-13T19:24:46.105Z,32.57
2018-12-13T19:29:49.894Z,30.67
2018-12-13T19:34:53.593Z,26.03
2018-12-13T19:39:57.451Z,24.57
2018-12-13T19:45:01.425Z,27.17
2018-12-13T19:50:05.485Z,25.17
2018-12-13T19:55:09.229Z,23.80
2018-12-13T20:00:13.378Z,28.17
2018-12-13T20:05:17.528Z,22.27
2018-12-13T20:10:21.655Z,26.33
2018-12-13T20:15:27.114Z,25.73
2018-12-13T20:20:30.841Z,22.77
2018-12-13T20:25:34.725Z,27.10
2018-12-13T20:30:38.519Z,32.30
2018-12-13T20:35:42.280Z,24.53
2018-12-13T20:40:46.183Z,23.47
2018-12-13T20:45:51.277Z,26.10
2018-12-13T20:50:55.917Z,27.33
2018-12-13T20:56:00.394Z,26.03
2018-12-13T21:01:04.186Z,22.67
2018-12-13T21:06:08.661Z,25.67
2018-12-13T21:11:12.438Z,24.40
2018-12-13T21:16:16.233Z,22.53
2018-12-13T21:21:20.293Z,23.77
2018-12-13T21:26:24.506Z,27.30
2018-12-13T21:31:28.778Z,26.83
2018-12-13T21:36:32.901Z,26.27
2018-12-13T21:41:36.921Z,21.40
2018-12-13T21:46:41.070Z,24.43
2018-12-13T21:51:44.864Z,23.00
2018-12-13T21:56:48.893Z,24.43
2018-12-13T22:01:52.633Z,24.87
2018-12-13T22:06:56.601Z,25.50
2018-12-13T22:12:00.311Z,22.97
2018-12-13T22:17:04.289Z,25.73
2018-12-13T22:22:08.681Z,23.87
2018-12-13T22:27:12.482Z,29.43
2018-12-13T22:32:16.242Z,23.67
2018-12-13T22:37:20.678Z,25.50
2018-12-13T22:42:25.602Z,26.00
2018-12-13T22:47:29.921Z,22.53
2018-12-13T22:52:35.301Z,24.70
2018-12-13T22:57:40.249Z,20.77
2018-12-13T23:02:44.671Z,24.77
2018-12-13T23:07:49.813Z,25.73
2018-12-13T23:12:53.908Z,23.93
2018-12-13T23:17:59.334Z,23.80
2018-12-13T23:23:03.777Z,22.23
2018-12-13T23:28:08.101Z,21.93
2018-12-13T23:33:12.999Z,24.33
2018-12-13T23:38:18.136Z,22.03
2018-12-13T23:43:22.136Z,23.87
2018-12-13T23:48:25.893Z,23.63
2018-12-13T23:53:31.068Z,27.33
2018-12-13T23:58:35.921Z,25.80
